createdAt,value
2023-04-02T00:00:11.910Z,2.10
2023-04-02T00:02:49.732Z,2.15
2023-04-02T00:05:31.714Z,1.77
2023-04-02T00:08:03.113Z,1.33
2023-04-02T00:10:51.239Z,1.70
2023-04-02T00:13:17.846Z,2.42
2023-04-02T00:15:49.416Z,2.63
2023-04-02T00:18:19.743Z,1.63
2023-04-02T00:20:55.427Z,2.05
2023-04-02T00:23:22.397Z,2.33
2023-04-02T00:25:49.122Z,2.17
2023-04-02T00:28:19.983Z,3.25
2023-04-02T00:30:56.485Z,2.75
2023-04-02T00:33:26.921Z,1.98
2023-04-02T00:35:55.318Z,2.75
2023-04-02T00:38:32.520Z,2.03
2023-04-02T00:41:02.811Z,2.10
2023-04-02T00:43:39.638Z,2.75
2023-04-02T00:46:15.313Z,2.50
2023-04-02T00:48:54.666Z,2.75
2023-04-02T00:51:42.031Z,3.00
2023-04-02T00:54:15.807Z,3.50
2023-04-02T00:56:48.600Z,1.52
2023-04-02T00:59:27.944Z,2.28
2023-04-02T01:02:04.122Z,2.63
2023-04-02T01:04:34.660Z,2.58
2023-04-02T01:07:06.351Z,2.05
2023-04-02T01:10:10.618Z,3.03
2023-04-02T01:13:19.195Z,3.05
2023-04-02T01:16:32.145Z,2.70
2023-04-02T01:19:35.580Z,1.70
2023-04-02T01:22:30.881Z,3.30
2023-04-02T01:24:58.300Z,3.95
2023-04-02T01:27:36.985Z,3.33
2023-04-02T01:30:07.298Z,2.15
2023-04-02T01:32:34.488Z,2.25
2023-04-02T01:35:01.357Z,2.25
2023-04-02T01:37:36.918Z,3.45
2023-04-02T01:40:35.957Z,2.75
2023-04-02T01:43:29.469Z,2.67
2023-04-02T01:45:58.615Z,2.85
2023-04-02T01:48:30.291Z,2.65
2023-04-02T01:50:58.413Z,3.45
2023-04-02T01:53:28.696Z,2.65
2023-04-02T01:55:59.619Z,4.00
2023-04-02T01:58:32.434Z,3.42
2023-04-02T02:01:07.081Z,3.83
2023-04-02T02:03:35.414Z,3.70
2023-04-02T02:06:06.104Z,2.75
2023-04-02T02:08:59.600Z,4.18
2023-04-02T02:11:30.177Z,4.93
2023-04-02T02:13:58.149Z,3.35
2023-04-02T02:16:27.526Z,3.33
2023-04-02T02:18:58.110Z,3.70
2023-04-02T02:21:42.984Z,3.58
2023-04-02T02:24:22.786Z,1.73
2023-04-02T02:27:24.235Z,3.65
2023-04-02T02:30:25.608Z,3.75
2023-04-02T02:33:00.855Z,2.85
2023-04-02T02:35:37.833Z,4.00
2023-04-02T02:38:34.655Z,2.75
2023-04-02T02:41:15.528Z,4.15
2023-04-02T02:43:51.286Z,3.40
2023-04-02T02:46:20.686Z,3.40
2023-04-02T02:48:47.749Z,3.65
2023-04-02T02:51:49.108Z,4.75
2023-04-02T02:54:21.145Z,2.30
2023-04-02T02:56:55.828Z,2.72
2023-04-02T02:59:23.253Z,2.75
2023-04-02T03:01:50.432Z,2.50
2023-04-02T03:04:22.793Z,4.13
2023-04-02T03:06:53.505Z,4.07
2023-04-02T03:09:47.110Z,2.42
2023-04-02T03:15:02.634Z,2.97
2023-04-02T03:17:44.696Z,3.47
2023-04-02T03:20:28.190Z,3.60
2023-04-02T03:23:27.997Z,3.25
2023-04-02T03:26:21.041Z,2.38
2023-04-02T03:29:28.217Z,3.17
2023-04-02T03:32:26.705Z,2.88
2023-04-02T03:35:01.912Z,3.10
2023-04-02T03:37:48.455Z,3.33
2023-04-02T03:40:22.546Z,4.22
2023-04-02T03:42:53.309Z,3.97
2023-04-02T03:45:24.220Z,3.60
2023-04-02T03:48:24.774Z,4.45
2023-04-02T03:51:14.843Z,4.38
2023-04-02T03:53:43.085Z,4.80
2023-04-02T03:56:31.689Z,3.92
2023-04-02T03:59:14.828Z,5.45
2023-04-02T04:02:26.730Z,3.67
2023-04-02T04:07:36.741Z,3.58
2023-04-02T04:10:05.193Z,2.83
2023-04-02T04:12:40.234Z,5.45
2023-04-02T04:15:24.655Z,4.07
2023-04-02T04:18:34.688Z,4.72
2023-04-02T04:21:38.698Z,3.65
2023-04-02T04:24:25.121Z,4.03
2023-04-02T04:27:04.458Z,3.45
2023-04-02T04:29:49.133Z,4.53
2023-04-02T04:32:27.138Z,2.95
2023-04-02T04:35:12.383Z,4.07
2023-04-02T04:37:41.510Z,4.22
2023-04-02T04:40:21.175Z,4.10
2023-04-02T04:42:54.611Z,4.13
2023-04-02T04:45:42.053Z,3.95
2023-04-02T04:48:27.151Z,4.00
2023-04-02T04:51:36.623Z,4.50
2023-04-02T04:54:04.486Z,4.38
2023-04-02T04:56:34.461Z,3.95
2023-04-02T04:59:25.756Z,5.38
2023-04-02T05:02:17.382Z,4.97
2023-04-02T05:04:49.971Z,4.90
2023-04-02T05:07:21.960Z,5.82
2023-04-02T05:10:06.611Z,4.88
2023-04-02T05:12:58.101Z,3.63
2023-04-02T05:15:27.952Z,5.90
2023-04-02T05:18:34.315Z,5.90
2023-04-02T05:21:27.499Z,5.57
2023-04-02T05:24:48.577Z,4.20
2023-04-02T05:27:28.905Z,5.10
2023-04-02T05:30:19.107Z,4.15
2023-04-02T05:32:53.683Z,4.63
2023-04-02T05:35:26.576Z,3.83
2023-04-02T05:37:53.906Z,6.13
2023-04-02T05:40:27.926Z,3.95
2023-04-02T05:42:55.740Z,5.13
2023-04-02T05:45:35.672Z,3.72
2023-04-02T05:48:15.839Z,4.07
2023-04-02T05:50:46.018Z,4.40
2023-04-02T05:53:29.369Z,5.75
2023-04-02T05:56:50.995Z,6.25
2023-04-02T05:59:32.223Z,5.68
2023-04-02T06:02:06.493Z,6.73
2023-04-02T06:04:55.679Z,4.35
2023-04-02T06:07:56.822Z,5.03
2023-04-02T06:10:28.999Z,4.90
2023-04-02T06:13:04.014Z,6.32
2023-04-02T06:15:37.180Z,4.10
2023-04-02T06:18:21.166Z,7.22
2023-04-02T06:20:49.728Z,4.75
2023-04-02T06:23:22.728Z,5.57
2023-04-02T06:26:39.007Z,7.63
2023-04-02T06:29:13.701Z,5.97
2023-04-02T06:32:00.746Z,5.78
2023-04-02T06:34:29.841Z,6.80
2023-04-02T06:37:23.658Z,10.45
2023-04-02T06:39:58.930Z,8.63
2023-04-02T06:42:31.294Z,7.57
2023-04-02T06:45:18.667Z,9.65
2023-04-02T06:48:06.274Z,6.97
2023-04-02T06:50:54.997Z,5.95
2023-04-02T06:53:47.525Z,6.57
2023-04-02T06:56:51.229Z,5.72
2023-04-02T06:59:25.586Z,7.00
2023-04-02T07:02:08.685Z,4.57
2023-04-02T07:04:35.542Z,8.88
2023-04-02T07:07:03.073Z,8.45
2023-04-02T07:09:33.610Z,6.82
2023-04-02T07:12:02.716Z,9.25
2023-04-02T07:14:29.653Z,4.55
2023-04-02T07:16:56.645Z,6.65
2023-04-02T07:19:23.334Z,6.38
2023-04-02T07:21:54.930Z,8.55
2023-04-02T07:24:23.527Z,5.88
2023-04-02T07:26:50.210Z,5.57
2023-04-02T07:29:17.490Z,8.50
2023-04-02T07:31:44.426Z,7.00
2023-04-02T07:34:11.212Z,9.30
2023-04-02T07:36:37.893Z,6.00
2023-04-02T07:39:05.115Z,6.13
2023-04-02T07:41:32.126Z,5.97
2023-04-02T07:43:58.899Z,6.10
2023-04-02T07:46:25.990Z,6.10
2023-04-02T07:48:52.866Z,5.25
2023-04-02T07:51:23.391Z,4.60
2023-04-02T07:53:55.626Z,4.45
2023-04-02T07:56:24.919Z,6.35
2023-04-02T07:58:51.654Z,4.30
2023-04-02T08:01:25.589Z,4.63
2023-04-02T08:03:54.592Z,5.15
2023-04-02T08:06:22.723Z,5.18
2023-04-02T08:08:49.980Z,5.82
2023-04-02T08:11:17.208Z,7.82
2023-04-02T08:13:43.960Z,7.22
2023-04-02T08:16:11.370Z,6.60
2023-04-02T08:18:38.289Z,4.65
2023-04-02T08:21:10.061Z,9.65
2023-04-02T08:23:37.708Z,4.43
2023-04-02T08:26:05.599Z,5.07
2023-04-02T08:28:32.401Z,4.85
2023-04-02T08:30:59.309Z,4.72
2023-04-02T08:33:26.425Z,6.43
2023-04-02T08:35:53.627Z,5.38
2023-04-02T08:38:22.583Z,6.35
2023-04-02T08:40:52.633Z,6.63
2023-04-02T08:43:40.788Z,5.35
2023-04-02T08:46:24.225Z,6.10
2023-04-02T08:48:58.155Z,5.95
2023-04-02T08:51:28.600Z,5.10
2023-04-02T08:54:01.491Z,4.55
2023-04-02T08:56:37.388Z,5.13
2023-04-02T08:59:20.533Z,4.75
2023-04-02T09:02:19.075Z,3.97
2023-04-02T09:04:46.049Z,5.05
2023-04-02T09:07:14.741Z,5.07
2023-04-02T09:09:41.601Z,5.32
2023-04-02T09:12:19.123Z,3.70
2023-04-02T09:15:11.106Z,4.55
2023-04-02T09:17:50.740Z,5.32
2023-04-02T09:20:26.165Z,4.45
2023-04-02T09:22:54.314Z,4.55
2023-04-02T09:25:27.454Z,4.53
2023-04-02T09:27:57.333Z,3.55
2023-04-02T09:30:33.724Z,3.92
2023-04-02T09:33:09.310Z,3.45
2023-04-02T09:35:51.436Z,2.35
2023-04-02T09:38:32.625Z,4.00
2023-04-02T09:41:05.893Z,3.43
2023-04-02T09:43:38.377Z,4.20
2023-04-02T09:46:21.260Z,4.25
2023-04-02T09:48:54.300Z,4.00
2023-04-02T09:51:31.657Z,4.35
2023-04-02T09:54:04.420Z,2.58
2023-04-02T09:56:34.238Z,3.58
2023-04-02T09:59:17.280Z,3.42
2023-04-02T10:01:56.041Z,3.60
2023-04-02T10:04:48.113Z,3.30
2023-04-02T10:07:41.281Z,2.97
2023-04-02T10:10:26.424Z,2.60
2023-04-02T10:13:03.472Z,2.25
2023-04-02T10:15:42.208Z,3.22
2023-04-02T10:18:25.380Z,2.30
2023-04-02T10:20:53.016Z,3.35
2023-04-02T10:23:26.800Z,3.10
2023-04-02T10:26:20.748Z,2.35
2023-04-02T10:29:09.373Z,2.03
2023-04-02T10:32:01.278Z,2.65
2023-04-02T10:34:44.204Z,3.35
2023-04-02T10:37:46.999Z,2.67
2023-04-02T10:40:37.273Z,2.55
2023-04-02T10:43:27.148Z,3.78
2023-04-02T10:46:02.600Z,2.53
2023-04-02T10:48:52.471Z,2.42
2023-04-02T10:52:09.848Z,2.85
2023-04-02T10:54:48.874Z,3.47
2023-04-02T10:57:27.068Z,2.83
2023-04-02T11:00:18.441Z,3.22
2023-04-02T11:02:56.856Z,2.30
2023-04-02T11:05:29.536Z,4.60
2023-04-02T11:08:05.025Z,3.10
2023-04-02T11:10:35.628Z,1.90
2023-04-02T11:13:36.678Z,3.25
2023-04-02T11:16:03.864Z,2.80
2023-04-02T11:18:38.646Z,2.63
2023-04-02T11:21:09.338Z,2.20
2023-04-02T11:23:54.475Z,2.25
2023-04-02T11:26:42.271Z,3.00
2023-04-02T11:29:28.197Z,2.70
2023-04-02T11:32:21.514Z,3.15
2023-04-02T11:34:56.285Z,3.05
2023-04-02T11:37:43.894Z,2.70
2023-04-02T11:40:14.019Z,1.35
2023-04-02T11:42:43.372Z,2.67
2023-04-02T11:45:26.434Z,3.45
2023-04-02T11:48:03.774Z,3.20
2023-04-02T11:50:41.436Z,2.50
2023-04-02T11:53:14.803Z,1.80
2023-04-02T11:55:44.820Z,2.40
2023-04-02T11:58:42.593Z,3.00
2023-04-02T12:01:21.371Z,3.05
2023-04-02T12:03:53.824Z,2.28
2023-04-02T12:06:39.890Z,2.17
2023-04-02T12:09:24.203Z,2.20
2023-04-02T12:11:52.790Z,2.45
2023-04-02T12:14:47.362Z,2.40
2023-04-02T12:17:35.424Z,3.25
2023-04-02T12:20:08.755Z,2.10
2023-04-02T12:22:39.826Z,2.45
2023-04-02T12:25:18.332Z,2.80
2023-04-02T12:27:46.561Z,2.20
2023-04-02T12:30:17.173Z,1.85
2023-04-02T12:32:44.030Z,2.70
2023-04-02T12:35:31.147Z,2.22
2023-04-02T12:37:58.054Z,2.45
2023-04-02T12:40:26.540Z,3.13
2023-04-02T12:42:53.355Z,3.45
2023-04-02T12:45:29.941Z,3.13
2023-04-02T12:47:58.117Z,2.03
2023-04-02T12:50:24.979Z,2.40
2023-04-02T12:52:54.844Z,2.88
2023-04-02T12:55:24.177Z,2.33
2023-04-02T12:57:59.264Z,1.80
2023-04-02T13:00:26.011Z,3.22
2023-04-02T13:03:01.378Z,2.95
2023-04-02T13:05:42.705Z,2.42
2023-04-02T13:08:41.555Z,3.03
2023-04-02T13:11:08.386Z,2.88
2023-04-02T13:13:42.000Z,2.35
2023-04-02T13:16:17.882Z,2.20
2023-04-02T13:18:47.326Z,2.20
2023-04-02T13:21:17.551Z,2.80
2023-04-02T13:23:44.478Z,2.70
2023-04-02T13:26:17.091Z,2.60
2023-04-02T13:29:16.903Z,2.17
2023-04-02T13:31:43.906Z,2.03
2023-04-02T13:34:11.738Z,2.15
2023-04-02T13:36:41.316Z,2.28
2023-04-02T13:39:08.063Z,2.00
2023-04-02T13:41:43.108Z,1.88
2023-04-02T13:44:20.292Z,2.25
2023-04-02T13:46:47.186Z,1.48
2023-04-02T13:49:14.302Z,2.25
2023-04-02T13:51:49.930Z,1.75
2023-04-02T13:54:33.660Z,1.60
2023-04-02T13:57:00.734Z,1.20
2023-04-02T13:59:27.592Z,2.17
2023-04-02T14:01:58.293Z,1.35
2023-04-02T14:04:29.285Z,1.98
2023-04-02T14:07:51.588Z,2.03
2023-04-02T14:11:03.162Z,1.58
2023-04-02T14:14:24.043Z,1.30
2023-04-02T14:17:12.370Z,1.55
2023-04-02T14:20:53.648Z,1.48
2023-04-02T14:23:38.246Z,1.65
2023-04-02T14:26:39.620Z,1.27
2023-04-02T14:29:33.247Z,1.53
2023-04-02T14:32:23.705Z,1.35
2023-04-02T14:35:29.315Z,1.92
2023-04-02T14:38:08.196Z,1.75
2023-04-02T14:40:59.561Z,2.25
2023-04-02T14:43:46.934Z,2.20
2023-04-02T14:46:13.697Z,1.40
2023-04-02T14:48:55.015Z,2.45
2023-04-02T14:51:43.606Z,2.28
2023-04-02T14:54:34.949Z,1.75
2023-04-02T14:57:25.036Z,1.50
2023-04-02T15:00:36.730Z,1.48
2023-04-02T15:03:10.732Z,1.80
2023-04-02T15:06:10.353Z,2.28
2023-04-02T15:08:52.397Z,2.03
2023-04-02T15:11:38.035Z,2.00
2023-04-02T15:14:24.139Z,2.20
2023-04-02T15:16:51.090Z,2.47
2023-04-02T15:19:19.064Z,2.67
2023-04-02T15:22:16.581Z,2.00
2023-04-02T15:25:34.229Z,2.40
2023-04-02T15:28:32.427Z,1.70
2023-04-02T15:31:05.948Z,2.10
2023-04-02T15:33:41.866Z,1.65
2023-04-02T15:36:33.186Z,2.17
2023-04-02T15:40:04.567Z,2.37
2023-04-02T15:42:38.168Z,1.75
2023-04-02T15:45:08.258Z,1.95
2023-04-02T15:47:56.057Z,2.30
2023-04-02T15:50:47.437Z,1.42
2023-04-02T15:53:38.846Z,2.08
2023-04-02T15:56:16.979Z,2.40
2023-04-02T15:59:11.424Z,2.20
2023-04-02T16:02:03.928Z,2.13
2023-04-02T16:04:38.877Z,1.88
2023-04-02T16:07:47.605Z,2.13
2023-04-02T16:10:40.139Z,2.15
2023-04-02T16:13:18.882Z,2.45
2023-04-02T16:16:07.102Z,1.67
2023-04-02T16:18:53.261Z,2.03
2023-04-02T16:21:23.399Z,1.80
2023-04-02T16:23:50.489Z,2.58
2023-04-02T16:26:57.216Z,1.50
2023-04-02T16:29:55.428Z,2.42
2023-04-02T16:32:43.379Z,2.25
2023-04-02T16:35:43.413Z,2.67
2023-04-02T16:38:41.711Z,2.50
2023-04-02T16:41:48.319Z,2.90
2023-04-02T16:44:56.931Z,2.30
2023-04-02T16:47:54.619Z,2.50
2023-04-02T16:50:27.322Z,2.33
2023-04-02T16:52:58.336Z,2.10
2023-04-02T16:55:37.241Z,2.90
2023-04-02T16:58:49.821Z,2.40
2023-04-02T17:04:46.627Z,1.98
2023-04-02T17:08:02.995Z,1.67
2023-04-02T17:10:37.969Z,2.13
2023-04-02T17:13:42.573Z,2.63
2023-04-02T17:16:14.197Z,1.90
2023-04-02T17:18:43.264Z,2.72
2023-04-02T17:21:16.087Z,1.83
2023-04-02T17:24:23.053Z,2.00
2023-04-02T17:27:05.665Z,2.10
2023-04-02T17:29:39.111Z,1.77
2023-04-02T17:32:17.710Z,2.13
2023-04-02T17:34:44.463Z,2.03
2023-04-02T17:37:20.350Z,1.73
2023-04-02T17:39:54.079Z,2.50
2023-04-02T17:42:48.812Z,1.42
2023-04-02T17:45:24.517Z,1.80
2023-04-02T17:48:12.743Z,2.00
2023-04-02T17:50:48.219Z,2.30
2023-04-02T17:53:42.815Z,2.13
2023-04-02T17:56:47.040Z,1.90
2023-04-02T18:00:08.472Z,3.05
2023-04-02T18:03:03.512Z,2.30
2023-04-02T18:05:33.134Z,1.73
2023-04-02T18:08:14.511Z,2.33
2023-04-02T18:11:13.608Z,1.85
2023-04-02T18:13:59.800Z,2.17
2023-04-02T18:16:42.610Z,1.58
2023-04-02T18:19:30.947Z,2.05
2023-04-02T18:22:38.329Z,2.65
2023-04-02T18:25:38.538Z,2.17
2023-04-02T18:28:24.253Z,2.10
2023-04-02T18:31:09.031Z,2.13
2023-04-02T18:34:13.196Z,1.77
2023-04-02T18:36:50.908Z,2.20
2023-04-02T18:39:44.875Z,2.53
2023-04-02T18:42:19.542Z,1.98
2023-04-02T18:45:09.046Z,3.08
2023-04-02T18:48:42.812Z,2.25
2023-04-02T18:51:22.430Z,2.25
2023-04-02T18:53:53.710Z,2.38
2023-04-02T18:56:22.319Z,2.42
2023-04-02T18:58:53.088Z,2.30
2023-04-02T19:01:33.693Z,2.58
2023-04-02T19:04:13.333Z,2.20
2023-04-02T19:06:45.459Z,2.55
2023-04-02T19:09:43.910Z,1.80
2023-04-02T19:12:19.805Z,2.60
2023-04-02T19:14:50.947Z,2.03
2023-04-02T19:17:39.583Z,1.98
2023-04-02T19:20:17.629Z,2.28
2023-04-02T19:23:25.042Z,2.10
2023-04-02T19:26:02.655Z,2.58
2023-04-02T19:28:53.043Z,2.65
2023-04-02T19:31:40.416Z,2.17
2023-04-02T19:34:25.972Z,1.95
2023-04-02T19:37:22.628Z,2.03
2023-04-02T19:40:08.567Z,2.17
2023-04-02T19:42:47.404Z,2.20
2023-04-02T19:45:35.761Z,2.40
2023-04-02T19:48:17.352Z,2.25
2023-04-02T19:50:45.133Z,2.10
2023-04-02T19:53:12.842Z,2.30
2023-04-02T19:55:41.447Z,2.20
2023-04-02T19:58:22.006Z,2.70
2023-04-02T20:00:48.803Z,2.47
2023-04-02T20:03:15.564Z,2.63
2023-04-02T20:05:42.330Z,2.28
2023-04-02T20:08:10.844Z,2.30
2023-04-02T20:10:38.303Z,2.60
2023-04-02T20:13:05.354Z,2.42
2023-04-02T20:15:32.404Z,2.35
2023-04-02T20:17:59.165Z,2.53
2023-04-02T20:20:26.047Z,3.20
2023-04-02T20:22:52.771Z,2.38
2023-04-02T20:25:19.489Z,2.22
2023-04-02T20:27:46.200Z,2.90
2023-04-02T20:30:13.222Z,2.60
2023-04-02T20:32:40.668Z,2.97
2023-04-02T20:35:08.174Z,2.50
2023-04-02T20:37:34.939Z,2.40
2023-04-02T20:40:01.914Z,2.38
2023-04-02T20:42:29.046Z,2.17
2023-04-02T20:44:55.792Z,3.17
2023-04-02T20:47:22.501Z,2.30
2023-04-02T20:49:50.365Z,2.30
2023-04-02T20:52:17.259Z,2.03
2023-04-02T20:54:44.073Z,2.90
2023-04-02T20:57:10.941Z,2.60
2023-04-02T20:59:37.745Z,2.75
2023-04-02T21:02:04.519Z,2.72
2023-04-02T21:04:31.369Z,2.78
2023-04-02T21:06:58.196Z,2.70
2023-04-02T21:09:24.968Z,2.40
2023-04-02T21:11:51.763Z,2.55
2023-04-02T21:14:19.112Z,2.75
2023-04-02T21:16:46.171Z,2.75
2023-04-02T21:19:13.100Z,2.70
2023-04-02T21:21:40.572Z,2.85
2023-04-02T21:24:08.762Z,2.45
2023-04-02T21:26:38.898Z,2.75
2023-04-02T21:29:06.250Z,2.40
2023-04-02T21:31:38.470Z,2.85
2023-04-02T21:34:06.546Z,2.60
2023-04-02T21:36:37.532Z,3.20
2023-04-02T21:39:08.104Z,2.80
2023-04-02T21:41:43.551Z,2.88
2023-04-02T21:44:14.534Z,2.50
2023-04-02T21:46:42.644Z,3.15
2023-04-02T21:49:15.927Z,2.97
2023-04-02T21:51:45.511Z,3.28
2023-04-02T21:54:13.491Z,3.28
2023-04-02T21:56:42.969Z,2.88
2023-04-02T21:59:12.753Z,2.75
2023-04-02T22:01:44.281Z,3.20
2023-04-02T22:04:20.370Z,3.10
2023-04-02T22:06:47.733Z,2.65
2023-04-02T22:09:19.214Z,3.65
2023-04-02T22:11:52.708Z,3.20
2023-04-02T22:14:19.575Z,2.80
2023-04-02T22:16:46.616Z,3.10
2023-04-02T22:19:15.614Z,3.65
2023-04-02T22:21:42.690Z,3.08
2023-04-02T22:24:13.851Z,3.25
2023-04-02T22:26:41.258Z,3.30
2023-04-02T22:29:08.222Z,2.95
2023-04-02T22:31:35.620Z,2.83
2023-04-02T22:34:04.322Z,3.53
2023-04-02T22:36:31.424Z,3.28
2023-04-02T22:38:59.138Z,3.35
2023-04-02T22:41:28.613Z,2.97
2023-04-02T22:43:56.689Z,3.78
2023-04-02T22:46:25.569Z,3.28
2023-04-02T22:48:52.760Z,3.53
2023-04-02T22:51:21.741Z,3.70
2023-04-02T22:53:48.799Z,3.60
2023-04-02T22:56:18.829Z,3.42
2023-04-02T22:58:45.992Z,3.58
2023-04-02T23:01:23.191Z,3.58
2023-04-02T23:03:50.167Z,3.60
2023-04-02T23:06:18.291Z,3.20
2023-04-02T23:08:45.761Z,3.55
2023-04-02T23:11:19.980Z,3.72
2023-04-02T23:13:49.122Z,3.25
2023-04-02T23:16:16.249Z,3.78
2023-04-02T23:18:47.199Z,3.40
2023-04-02T23:21:14.016Z,3.47
2023-04-02T23:23:40.950Z,3.65
2023-04-02T23:26:21.681Z,3.17
2023-04-02T23:28:49.277Z,3.75
2023-04-02T23:31:20.431Z,3.90
2023-04-02T23:33:47.236Z,3.25
2023-04-02T23:36:25.874Z,3.88
2023-04-02T23:38:55.714Z,3.40
2023-04-02T23:41:24.785Z,3.22
2023-04-02T23:43:51.625Z,3.53
2023-04-02T23:46:19.096Z,4.10
2023-04-02T23:48:46.707Z,3.70
2023-04-02T23:51:14.289Z,3.25
2023-04-02T23:53:41.163Z,3.53
2023-04-02T23:56:07.896Z,3.55
2023-04-02T23:58:34.700Z,3.30
